Aérodrome :
LOGIN :

S'inscrire | Disclaimer

   EN    FR    IT 

 










Légende :    VFR   VFR Marginal   IFR   IFR Intensif   IFR Très Intensif
Visi : 
Plafond : 
>= 8 km
>= 3000ft
5 à 8 km
1000 à 3000 ft
1500m à 5 km
500 à 1000 ft
800 à 1500m
200 à 500 ft
< 800m
< 200 ft
Symboles :   Orages  Brouillard  Fortes neiges  Fortes précipitations  Vent > 20 kt
SIGMETs :   Divers  Orages  Givrage  Turbulence  Onde Orograph.  Cendres Volcan.







- Altitude de l'aérodrome : 13 ft
- Code IATA : OST


EBOS - Oostend bruges Int.

DERNIER METAR :
  • 210950Z 15008KT 110V190 9999 SCT020 SCT026 18/12 Q1023 NOSIG

METARs EXPIRÉS :
  • 210920Z 16009KT 9999 FEW016 SCT026 17/12 Q1023 NOSIG
  • 210850Z 15010KT 9999 FEW012 SCT032 16/12 Q1023 NOSIG
  • 210820Z 15007KT 9999 FEW008 SCT032 15/12 Q1023 NOSIG
  • 210750Z 15006KT 9999 SCT006 BKN032 14/12 Q1024 NOSIG
  • 210720Z 15005KT 4000 BR SCT006 BKN020 14/12 Q1024 BECMG 8000 BKN013

TAF TAF EBOS
Valide du 21 à 06h jusqu'au 22 à 12h UTC


210500Z 2106/2212 15006KT 9999 FEW020 SCT035
BECMG 2117/2119 BKN006
TEMPO 2119/2208 1200 DZ BCFG BKN002
BECMG 2208/2210 FEW008 BKN012
Pas de NOTAMs connus pour ce terrain.



MET'MAP, la Météo Aéronautique d'un coup d'oeil ! - Copyright ORBIFLY Décembre 2007 - Disclaimer

ORBIFLY MET'MAP TEAM :

Programmation & Développement : Alexandra Zaïnal
Conception & Développement : Baudouin d'Aumeries
Co-Programmation & Développement : Marc-Olivier Méhu
Soutien technique & logistique : Manuel Goepfert

Contact : metmap@orbifly.com




SOURCES & CREDITS :

   NOAA